Stations météo

réclame
Mon MeteoGroup
La Molina, Espagne (8117): Température de l'air & dewpoint: 21.04.2018 10:00:00 - 27.04.2018 10:00:00 (CEST)La Molina, Espagne (8117): Vitesse du vent & gusts: 21.04.2018 10:00:00 - 27.04.2018 10:00:00 (CEST)La Molina, Espagne (8117): Direction du vent: 21.04.2018 10:00:00 - 27.04.2018 10:00:00 (CEST)La Molina, Espagne (8117): visibility: 21.04.2018 10:00:00 - 27.04.2018 10:00:00 (CEST)La Molina, Espagne (8117): Ensoleillement: 21.04.2018 10:00:00 - 27.04.2018 10:00:00 (CEST)La Molina, Espagne (8117): Quantités de précipitations: 21.04.2018 10:00:00 - 27.04.2018 10:00:00 (CEST)
Date & Time tt [°C] td [°C] ff [km/h] ff [knt] fx [km/h] fx [knt] dd vv [km] sd [min] rr [mm]
27.04.2018 10:00:00 - - - - - - - - - -
27.04.2018 09:00:00 8,3 6,6 2 1 9 5 SE 20 33 0,0
27.04.2018 08:00:00 6,5 6,1 5 3 13 7 SE 1,4 0 -
27.04.2018 07:00:00 7,0 6,8 5 3 11 6 SE 0,3 0 0,0
27.04.2018 06:00:00 7,8 7,7 4 2 16 9 W 1,2 0 0,0
27.04.2018 05:00:00 8,2 8,1 5 3 12 6 N 0,1 0 0,0
27.04.2018 04:00:00 7,6 7,3 4 2 11 6 ESE 10 0 0,0
27.04.2018 03:00:00 8,1 7,8 3 1 8 4 E 1,1 0 0,0
27.04.2018 02:00:00 7,3 6,7 4 2 9 5 SE 13 0 -
27.04.2018 01:00:00 7,0 5,8 4 2 9 5 E 15 0 0,0
27.04.2018 00:00:00 7,8 5,6 4 2 10 6 ESE 20 0 0,0
26.04.2018 23:00:00 9,9 6,6 4 2 11 6 NE 20 0 0,0
26.04.2018 22:00:00 10,6 6,9 9 5 24 13 S 20 0 0,0
26.04.2018 21:00:00 10,3 6,8 16 9 32 18 SE 20 0 0,0
26.04.2018 20:00:00 11,1 7,0 14 7 32 18 SSE 20 10 -
26.04.2018 19:00:00 12,9 7,7 19 10 31 17 SE 20 26 0,0
26.04.2018 18:00:00 12,7 7,8 19 10 31 17 SSE 20 32 0,0
26.04.2018 17:00:00 14,0 7,6 21 11 35 19 SE 20 52 0,0
26.04.2018 16:00:00 15,4 7,1 14 8 29 16 SSE 20 59 0,0
26.04.2018 15:00:00 16,5 6,1 14 8 27 15 SSE 20 60 0,0
26.04.2018 14:00:00 17,7 -0,1 6 4 19 10 S 20 60 -
26.04.2018 13:00:00 16,7 3,4 8 5 17 9 NNW 20 60 0,0
26.04.2018 12:00:00 15,0 6,8 5 3 13 7 N 20 60 0,0
26.04.2018 11:00:00 13,8 7,6 2 1 11 6 NW 16 60 0,0
26.04.2018 10:00:00 10,9 6,7 2 1 5 3 S 20 60 0,0
26.04.2018 09:00:00 8,0 6,3 3 2 7 4 E 20 31 0,0
26.04.2018 08:00:00 5,6 4,4 5 3 8 4 SSE 20 0 -
26.04.2018 07:00:00 4,9 3,9 4 2 9 5 SE 19 0 0,0
26.04.2018 06:00:00 6,0 5,0 3 1 12 6 E 17 0 0,0
26.04.2018 05:00:00 6,2 5,0 7 4 12 7 ESE 19 0 0,0
26.04.2018 04:00:00 6,3 5,1 6 4 11 6 ESE 17 0 0,0
26.04.2018 03:00:00 6,3 4,8 6 4 12 6 SE 18 0 0,0
26.04.2018 02:00:00 7,3 5,6 5 3 11 6 ESE 20 0 -
26.04.2018 01:00:00 7,3 5,6 6 3 10 6 SE 20 0 0,0
26.04.2018 00:00:00 8,0 5,6 5 3 11 6 ESE 20 0 0,0
25.04.2018 23:00:00 8,9 6,0 6 3 10 5 ESE 20 0 0,0
25.04.2018 22:00:00 9,0 5,6 5 3 9 5 SSE 20 0 0,0
25.04.2018 21:00:00 9,8 5,6 4 2 16 8 SE 20 0 0,0
25.04.2018 20:00:00 9,3 5,3 5 3 14 7 ESE 20 0 -
25.04.2018 19:00:00 11,8 6,5 14 7 41 22 S 20 0 0,0
25.04.2018 18:00:00 12,4 6,8 19 10 39 21 S 20 0 0,0
25.04.2018 17:00:00 12,4 6,2 17 9 38 21 S 20 0 0,0
25.04.2018 16:00:00 13,4 5,0 17 9 40 22 S 20 0 0,0
25.04.2018 15:00:00 17,2 1,2 11 6 22 12 S 20 40 0,0
25.04.2018 14:00:00 18,0 -0,3 8 5 17 9 W 20 52 -
25.04.2018 13:00:00 18,2 1,3 8 4 16 9 NNW 20 60 0,0
25.04.2018 12:00:00 17,1 4,8 2 1 9 5 ESE 20 60 0,0
25.04.2018 11:00:00 14,9 6,7 6 3 11 6 NNW 20 60 0,0
25.04.2018 10:00:00 12,9 5,8 4 2 21 11 S 20 60 0,0
25.04.2018 09:00:00 10,1 3,8 2 1 11 6 ESE 20 31 0,0
25.04.2018 08:00:00 7,9 3,0 6 4 11 6 ESE 20 0 -
25.04.2018 07:00:00 6,7 3,5 6 4 10 5 SE 20 0 0,0
25.04.2018 06:00:00 6,6 2,9 6 4 10 6 SE 20 0 0,0
25.04.2018 05:00:00 6,9 2,8 6 4 11 6 SE 20 0 0,0
25.04.2018 04:00:00 7,3 3,5 5 3 11 6 SE 20 0 0,0
25.04.2018 03:00:00 7,5 5,0 6 4 10 5 SE 20 0 0,0
25.04.2018 02:00:00 7,7 5,2 8 4 11 6 SE 20 0 -
25.04.2018 01:00:00 7,8 5,3 7 4 11 6 SE 20 0 0,0
25.04.2018 00:00:00 7,7 5,0 7 4 11 6 SE 20 0 0,0
24.04.2018 23:00:00 8,6 5,5 7 4 11 6 SE 20 0 0,0
24.04.2018 22:00:00 8,9 5,3 6 4 11 6 SE 20 0 0,0
24.04.2018 21:00:00 12,0 6,8 4 2 29 15 S 20 0 0,0
24.04.2018 20:00:00 13,3 7,6 16 8 36 19 S 20 31 -
24.04.2018 19:00:00 15,0 8,0 19 10 33 18 S 20 60 0,0
24.04.2018 18:00:00 16,7 7,6 16 8 29 16 S 20 60 0,0
24.04.2018 17:00:00 18,7 6,2 9 5 22 12 S 20 60 0,0
24.04.2018 16:00:00 17,7 6,3 8 4 23 13 S 20 59 0,0
24.04.2018 15:00:00 16,8 6,5 8 5 22 12 SSE 20 58 0,0
24.04.2018 14:00:00 16,5 5,8 9 5 24 13 WNW 19 59 -
24.04.2018 13:00:00 16,1 4,8 8 4 14 7 NW 20 60 0,0
24.04.2018 12:00:00 15,0 5,5 7 4 16 8 N 20 60 0,0
24.04.2018 11:00:00 13,6 5,3 3 2 9 5 N 20 60 0,0
24.04.2018 10:00:00 10,6 4,7 3 1 6 4 E 20 60 0,0
24.04.2018 09:00:00 7,8 3,3 3 1 8 4 SE 20 29 0,0
24.04.2018 08:00:00 5,5 1,9 5 3 9 5 SSE 20 0 -
24.04.2018 07:00:00 5,1 1,8 7 4 11 6 SE 20 0 0,0
24.04.2018 06:00:00 5,3 1,8 6 4 10 5 SE 20 0 0,0
24.04.2018 05:00:00 5,9 2,1 6 3 10 5 SE 20 0 0,0
24.04.2018 04:00:00 5,8 2,1 7 4 11 6 SSE 20 0 0,0
24.04.2018 03:00:00 5,8 2,7 6 3 10 5 SSE 20 0 0,0
24.04.2018 02:00:00 5,6 2,6 7 4 12 7 SSE 20 0 -
24.04.2018 01:00:00 5,9 2,7 4 2 11 6 SSE 20 0 0,0
24.04.2018 00:00:00 5,9 2,9 6 4 10 6 SSW 20 0 0,0
23.04.2018 23:00:00 7,1 3,9 5 3 15 8 S 20 0 0,2
23.04.2018 22:00:00 8,2 4,3 5 3 24 13 S 20 0 0,6
23.04.2018 21:00:00 8,2 5,0 7 4 28 15 SSE 8 0 1,0
23.04.2018 20:00:00 10,1 4,8 10 5 27 15 W 19 0 -
23.04.2018 19:00:00 9,7 3,5 5 3 11 6 SSE 20 0 0,0
23.04.2018 18:00:00 11,3 3,8 5 3 15 8 S 20 0 0,0
23.04.2018 17:00:00 11,1 3,4 4 2 18 10 S 20 0 0,0
23.04.2018 16:00:00 14,4 3,6 7 4 18 10 SW 20 33 0,0
23.04.2018 15:00:00 14,9 3,4 7 4 16 9 WSW 20 4 0,0
23.04.2018 14:00:00 16,2 2,6 6 3 25 13 S 20 27 -
23.04.2018 13:00:00 16,4 2,1 5 3 21 11 SW 12 34 0,0
23.04.2018 12:00:00 15,3 1,1 7 4 18 10 S 20 4 0,0
23.04.2018 11:00:00 12,2 2,9 3 2 10 5 SSE 20 0 0,0
23.04.2018 10:00:00 11,2 2,5 3 1 8 4 SE 20 27 0,0
23.04.2018 09:00:00 9,2 1,9 5 3 11 6 SE 20 19 0,0
23.04.2018 08:00:00 7,6 1,9 6 3 13 7 ESE 20 0 -
23.04.2018 07:00:00 7,0 1,1 4 2 11 6 SE 20 0 0,0
23.04.2018 06:00:00 7,2 1,3 6 4 11 6 SE 20 0 0,0
23.04.2018 05:00:00 7,6 1,5 4 2 12 6 ESE 20 0 0,0
23.04.2018 04:00:00 6,9 1,4 5 3 13 7 ESE 20 0 0,0
23.04.2018 03:00:00 6,8 1,9 7 4 12 7 SE 20 0 0,0
23.04.2018 02:00:00 7,1 2,9 3 2 11 6 ESE 20 0 -
23.04.2018 01:00:00 7,2 2,7 8 4 11 6 ESE 20 0 0,0
23.04.2018 00:00:00 8,0 2,3 5 3 11 6 SSE 20 0 0,0
22.04.2018 23:00:00 8,4 2,6 6 3 12 6 SE 20 0 0,0
22.04.2018 22:00:00 9,0 2,4 5 3 13 7 S 20 0 0,0
22.04.2018 21:00:00 10,3 2,4 6 4 16 9 SSW 20 0 0,0
22.04.2018 20:00:00 13,3 3,6 8 4 34 18 S 20 9 -
22.04.2018 19:00:00 14,0 5,1 15 8 31 17 S 20 36 0,0
22.04.2018 18:00:00 14,8 4,8 11 6 27 15 SSE 20 60 0,0
22.04.2018 17:00:00 15,8 3,6 14 8 24 13 SE 20 60 0,0
22.04.2018 16:00:00 17,2 4,1 8 5 29 16 SSW 20 60 0,0
22.04.2018 15:00:00 18,4 2,7 6 3 15 8 SW 20 60 0,0
22.04.2018 14:00:00 17,2 2,0 5 3 14 7 NNE 20 60 -
22.04.2018 13:00:00 15,3 4,4 3 2 8 4 NNW 20 52 0,0
22.04.2018 12:00:00 12,8 3,7 2 1 8 4 SSE 20 41 0,0
22.04.2018 11:00:00 12,7 2,8 3 2 8 4 SSE 20 56 0,0
22.04.2018 10:00:00 7,7 1,9 5 3 9 5 SE 20 0 0,0
22.04.2018 09:00:00 6,7 2,7 4 2 10 5 E 18 0 0,0
22.04.2018 08:00:00 4,7 2,3 6 3 10 5 ESE 20 0 -
22.04.2018 07:00:00 4,3 1,8 3 2 12 7 ESE 20 0 0,0
22.04.2018 06:00:00 4,6 2,1 4 2 11 6 ESE 20 0 0,0
22.04.2018 05:00:00 4,3 -0,1 6 3 11 6 SE 20 0 0,0
22.04.2018 04:00:00 5,2 0,9 7 4 10 5 ESE 20 0 0,0
22.04.2018 03:00:00 5,4 0,6 5 3 10 5 SE 20 0 0,0
22.04.2018 02:00:00 6,1 0,6 7 4 12 6 ESE 20 0 -
22.04.2018 01:00:00 5,8 1,4 6 3 13 7 SE 20 0 0,0
22.04.2018 00:00:00 6,4 1,9 8 4 13 7 ESE 20 0 0,0
21.04.2018 23:00:00 6,2 1,7 7 4 13 7 SE 20 0 0,0
21.04.2018 22:00:00 8,2 2,5 9 5 17 9 SSE 20 0 0,0
21.04.2018 21:00:00 9,6 2,7 13 7 27 14 S 20 0 0,0
21.04.2018 20:00:00 11,6 3,1 14 7 23 13 S 20 51 -
21.04.2018 19:00:00 13,9 1,9 10 5 27 15 S 20 60 0,0
21.04.2018 18:00:00 14,5 1,1 9 5 28 15 SW 20 60 0,0
21.04.2018 17:00:00 13,6 1,6 11 6 29 15 S 20 53 0,0
21.04.2018 16:00:00 15,6 1,4 6 3 31 17 S 20 60 0,0
21.04.2018 15:00:00 13,9 1,9 14 8 32 18 SE 20 57 0,0
21.04.2018 14:00:00 11,9 2,1 16 9 32 17 SE 20 43 -
21.04.2018 13:00:00 13,3 2,0 7 4 27 14 SE 20 59 0,0
21.04.2018 12:00:00 12,4 -0,5 12 6 26 14 ESE 20 60 0,0
21.04.2018 11:00:00 10,7 0,5 13 7 22 12 SE 19 60 0,0
21.04.2018 10:00:00 9,5 1,2 8 5 12 7 SSE 20 60 0,0

tt = Température de l'air
td = dewpoint
ff = Vitesse du vent
fx = gusts
dd = Direction du vent
vv = visibility
sd = Ensoleillement
rr = Quantités de précipitations

stations d'obs. à proximité